• Join FlightAware (Why Join?)
  • Login
  • US Flag 
09:45PM EDT


 

Airport Tracker/Info


-or-


 

Live Flight TrackerFlight Track Log ✈ CPZ5718 ✈ 20-Oct-2013 ✈ CYYC - KMSP

Flight Track Log - Related Links

Times and Time Zones

All times are in EDT time to prevent confusion due to time zone crossing. See the CPZ5718 flight status page for this flight to view local times or setup timezone preferences in your user account.

Time Position Orientation Groundspeed Altitude Reporting Facility
EDT Latitude Longitude Course Direction KTS MPH feet Rate Location/Type
10:37AM 51.0667 -114.0333 119° Southeast 170 196 3,900  Level Edmonton Center
10:38AM 51.0167 -114.0500 192° South 200 230 5,100 1,560 Climbing Edmonton Center
10:39AM 50.9500 -114.0333 171° South 250 288 7,100 2,100 Climbing Edmonton Center
10:40AM 50.9729 -113.2581 121° Southeast  Level Estimated
10:40AM 50.8833 -114.0167 171° South 300 345 9,300  Level Edmonton Center
10:41AM 50.8940 -113.1044 129° Southeast  Level FlightAware Approximate
10:41AM 50.8667 -113.8833 101° East 310 357 11,400  Level Edmonton Center
10:42AM 50.8581 -112.9149 119° Southeast  Level Estimated
10:42AM 50.8667 -113.7167 90° East 350 403 13,200  Level Edmonton Center
10:43AM 50.8667 -113.5833 90° East 360 414 15,300 2,100 Climbing Edmonton Center
10:44AM 50.8833 -113.4000 82° East 370 426 17,400 1,980 Climbing Edmonton Center
10:45AM 50.8500 -113.2333 108° East 390 449 19,300 1,740 Climbing Edmonton Center
10:46AM 50.7833 -113.0667 122° Southeast 420 483 20,900 1,440 Climbing Edmonton Center
10:47AM 50.7333 -112.9167 118° Southeast 430 495 22,200 1,200 Climbing Edmonton Center
10:48AM 50.6833 -112.7500 115° Southeast 450 518 23,300 1,020 Climbing Edmonton Center
10:49AM 50.6000 -112.5500 123° Southeast 470 541 24,300 960 Climbing Edmonton Center
10:50AM 50.5333 -112.3667 120° Southeast 480 552 25,300 1,020 Climbing Edmonton Center
10:51AM 50.4667 -112.1833 120° Southeast 490 564 26,400 960 Climbing Edmonton Center
10:52AM 50.3833 -112.0000 125° Southeast 490 564 27,300 900 Climbing Edmonton Center
10:53AM 50.3167 -111.8000 118° Southeast 490 564 28,300 960 Climbing Edmonton Center
10:54AM 50.2500 -111.6333 122° Southeast 500 575 29,300 960 Climbing Edmonton Center
10:56AM 50.1167 -111.2500 118° Southeast 490 564 31,300 960 Climbing Edmonton Center
10:57AM 50.0333 -111.0833 128° Southeast 490 564 32,200 960 Climbing Edmonton Center
10:58AM 49.9667 -110.8833 117° Southeast 480 552 33,300 840 Climbing Edmonton Center
10:59AM 49.9167 -110.7167 115° Southeast 460 529 33,900 540 Climbing Edmonton Center
11:00AM 49.8833 -110.5167 104° East 450 518 34,400 480 Climbing Edmonton Center
11:01AM 49.8500 -110.3500 107° East 450 518 34,900 300 Climbing Edmonton Center
11:02AM 49.8167 -110.1333 103° East 460 529 35,000  Climbing Edmonton Center
11:03AM 49.8000 -109.9500 98° East 470 541 35,000  Level Edmonton Center
11:04AM 49.7500 -109.7333 110° East 480 552 35,000  Level Edmonton Center
11:05AM 49.7333 -109.5500 98° East 480 552 35,000  Level Edmonton Center
11:05AM 49.7167 -109.4500 104° East 480 552 35,000  Level Winnipeg Center
11:06AM 49.6833 -109.2667 106° East 480 552 35,000  Level Winnipeg Center
11:07AM 49.6500 -109.0667 104° East 480 552 35,000  Level Winnipeg Center
11:08AM 49.6000 -108.8667 111° Southeast 490 564 35,000  Level Winnipeg Center
11:09AM 49.5833 -108.6667 97° East 490 564 35,000  Level Winnipeg Center
11:10AM 49.5500 -108.4667 104° East 490 564 35,000  Level Winnipeg Center
11:11AM 49.5000 -108.2833 113° Southeast 490 564 35,000  Level Winnipeg Center
11:12AM 49.4667 -108.0667 103° East 490 564 35,000  Level Winnipeg Center
11:13AM 49.4167 -107.8667 111° Southeast 490 564 35,000  Level Winnipeg Center
11:14AM 49.4000 -107.6500 97° East 490 564 35,000  Level Winnipeg Center
11:15AM 49.3667 -107.4667 106° East 490 564 35,000  Level Winnipeg Center
11:16AM 49.3333 -107.2833 106° East 480 552 35,000  Level Winnipeg Center
11:17AM 49.2833 -107.0667 109° East 480 552 35,000  Level Winnipeg Center
11:18AM 49.2500 -106.8667 104° East 480 552 35,000  Level Winnipeg Center
11:19AM 49.2000 -106.6833 113° Southeast 480 552 35,000  Level Winnipeg Center
11:20AM 49.1667 -106.5000 105° East 480 552 35,000  Level Winnipeg Center
11:21AM 49.1333 -106.2833 103° East 480 552 35,000  Level Winnipeg Center
11:22AM 49.1000 -106.1000 105° East 480 552 35,000  Level Winnipeg Center
11:23AM 49.0872 -105.9906 100° East 484 557 35,000  Level Salt Lake Center
11:24AM 49.0383 -105.7539 107° East 488 562 35,000  Level Salt Lake Center
11:25AM 48.9981 -105.5561 107° East 489 563 35,000  Level Salt Lake Center
11:26AM 48.9333 -105.4000 122° Southeast 490 564 35,000  Level Edmonton Center
11:26AM 48.9167 -105.3000 104° East 490 564 35,000  Level Winnipeg Center
11:27AM 48.8833 -105.1167 105° East 490 564 35,000  Level Winnipeg Center
11:28AM 48.8728 -104.9672 96° East 489 563 35,000  Level Salt Lake Center
11:29AM 48.8286 -104.7722 109° East 490 564 35,000  Level Salt Lake Center
11:30AM 48.7869 -104.5731 108° East 491 565 35,000  Level Salt Lake Center
11:31AM 48.7339 -104.3408 109° East 490 564 35,000  Level Salt Lake Center
11:32AM 48.6667 -104.1333 116° Southeast 500 575 35,000  Level Winnipeg Center
11:33AM 48.6167 -103.9333 111° Southeast 500 575 35,000  Level Winnipeg Center
11:34AM 48.6000 -103.7461 98° East 496 571 35,000  Level Salt Lake Center
11:35AM 48.5547 -103.5481 109° East 497 572 35,000  Level Salt Lake Center
11:36AM 48.5100 -103.3506 109° East 497 572 35,000  Level Salt Lake Center
11:37AM 48.4633 -103.1531 110° East 498 573 35,000  Level Salt Lake Center
11:38AM 48.4061 -102.9169 110° East 499 574 35,000  Level Salt Lake Center
11:39AM 48.3592 -102.7178 109° East 501 577 35,000  Level Salt Lake Center
11:40AM 48.3117 -102.5192 110° East 502 578 35,000  Level Salt Lake Center
11:41AM 48.2639 -102.3211 110° East 504 580 35,000  Level Salt Lake Center
11:42AM 48.2144 -102.1244 111° Southeast 504 580 35,000  Level Salt Lake Center
11:44AM 48.1667 -101.9261 110° East 504 580 35,000  Level Salt Lake Center
11:45AM 48.1175 -101.7294 110° East 505 581 35,000  Level Salt Lake Center
11:46AM 48.0436 -101.4519 112° Southeast 508 585 35,000  Level Minneapolis Center
11:47AM 47.9919 -101.2561 111° Southeast 508 585 35,000  Level Minneapolis Center
11:48AM 47.9444 -101.0647 110° East 510 587 35,000  Level Minneapolis Center
11:49AM 47.8933 -100.8692 111° Southeast 510 587 35,000  Level Minneapolis Center
11:50AM 47.8336 -100.6356 111° Southeast 508 585 35,000  Level Minneapolis Center
11:51AM 47.7814 -100.4408 112° Southeast 509 586 35,000  Level Minneapolis Center
11:52AM 47.7300 -100.2469 111° Southeast 508 585 35,000  Level Minneapolis Center
11:53AM 47.6803 -100.0506 111° Southeast 511 588 35,000  Level Minneapolis Center
11:54AM 47.6308 -99.8578 111° Southeast 506 582 35,000  Level Minneapolis Center
11:55AM 47.5767 -99.6619 112° Southeast 513 590 35,000  Level Minneapolis Center
11:56AM 47.5244 -99.4694 112° Southeast 509 586 35,000  Level Minneapolis Center
11:57AM 47.4608 -99.2386 112° Southeast 508 585 35,000  Level Minneapolis Center
11:58AM 47.4069 -99.0458 112° Southeast 509 586 35,000  Level Minneapolis Center
11:59AM 47.3539 -98.8531 112° Southeast 510 587 35,000  Level Minneapolis Center
12:00PM 47.3019 -98.6600 112° Southeast 511 588 35,000  Level Minneapolis Center
12:01PM 47.2475 -98.4706 113° Southeast 509 586 35,000  Level Minneapolis Center
12:02PM 47.1822 -98.2425 113° Southeast 510 587 35,000  Level Minneapolis Center
12:03PM 47.1275 -98.0539 113° Southeast 509 586 35,000  Level Minneapolis Center
12:04PM 47.0725 -97.8653 113° Southeast 510 587 35,000  Level Minneapolis Center
12:05PM 47.0172 -97.6733 113° Southeast 514 592 35,000  Level Minneapolis Center
12:06PM 46.9572 -97.4861 115° Southeast 513 590 35,000  Level Minneapolis Center
12:07PM 46.8933 -97.3003 117° Southeast 515 593 35,000  Level Minneapolis Center
12:08PM 46.8167 -97.0783 117° Southeast 515 593 35,000  Level Minneapolis Center
12:10PM 46.7533 -96.8956 117° Southeast 509 586 35,000  Level Minneapolis Center
12:11PM 46.6906 -96.7111 116° Southeast 510 587 35,000  Level Minneapolis Center
12:12PM 46.6264 -96.5289 117° Southeast 508 585 35,000  Level Minneapolis Center
12:13PM 46.5622 -96.3461 117° Southeast 508 585 35,000  Level Minneapolis Center
12:14PM 46.4983 -96.1653 117° Southeast 507 583 35,000  Level Minneapolis Center
12:15PM 46.4206 -95.9478 117° Southeast 508 585 35,000  Level Minneapolis Center
12:16PM 46.3619 -95.7872 118° Southeast 505 581 35,000  Level Minneapolis Center
12:17PM 46.2842 -95.5706 117° Southeast 506 582 35,000  Level Minneapolis Center
12:18PM 46.2294 -95.4186 117° Southeast 509 586 35,000  Level Minneapolis Center
12:19PM 46.1514 -95.2108 118° Southeast 506 582 35,000  Level Minneapolis Center
12:20PM 46.0911 -95.0400 117° Southeast 505 581 35,000 -1,080 Level Minneapolis Center
12:21PM 46.0264 -94.8683 118° Southeast 494 568 32,900 -2,760 Descending Minneapolis Center
12:22PM 45.9492 -94.6628 118° Southeast 490 564 29,300 -3,120 Descending Minneapolis Center
12:23PM 45.8869 -94.4936 118° Southeast 485 558 26,500 -2,700 Descending Minneapolis Center
12:24PM 45.8272 -94.3344 118° Southeast 467 537 23,800 -2,640 Descending Minneapolis Center
12:25PM 45.7686 -94.1844 119° Southeast 443 510 21,100 -2,520 Descending Minneapolis Center
12:26PM 45.7125 -94.0378 119° Southeast 429 494 18,700 -2,400 Descending Minneapolis Center
12:27PM 45.6578 -93.8950 119° Southeast 413 475 16,200 -2,400 Descending Minneapolis Center
12:28PM 45.6031 -93.7561 119° Southeast 403 464 13,800 -2,520 Descending Minneapolis Center
12:29PM 45.5406 -93.5981 119° Southeast 383 441 11,100 -1,620 Descending Minneapolis Center
12:30PM 45.4553 -93.5419 155° Southeast 337 388 10,500 -840 Descending Minneapolis Center
12:31PM 45.3767 -93.5172 168° South 292 336 9,400 -1,260 Descending Minneapolis Center
12:32PM 45.3014 -93.5014 172° South 276 318 8,000 -1,200 Descending Minneapolis Center
12:33PM 45.2269 -93.4972 178° South 269 310 7,000 -840 Descending Minneapolis Center
12:34PM 45.1542 -93.4906 176° South 263 303 6,300 -1,260 Descending Minneapolis Center
12:35PM 45.0708 -93.4853 177° South 251 289 4,500 -1,140 Descending Minneapolis Center
12:36PM 45.0108 -93.4719 171° South 227 261 4,000 -240 Descending Minneapolis Center
12:37PM 44.9681 -93.4222 141° Southeast 200 230 4,000 -480 Level Minneapolis Center
12:38PM 44.9417 -93.3586 120° Southeast 191 220 3,000 -960 Descending Minneapolis Center
12:39PM 44.9200 -93.3089 122° Southeast 156 180 2,100 -840 Descending Minneapolis Center
12:41PM 44.8983 -93.2583 121° Southeast 128 147 1,300 -780 Descending Minneapolis Center
12:43PM 44.8820 -93.2218 127° Southeast  Level Estimated